Latest Coastal Weather Observations for Rhyll

IDV60701

Issued at 10:11 am EST Saturday 28 May 2016 (issued every 10 minutes, with the page automatically refreshed every 10 minutes)

About coastal observations | Map of coastal stations | Coastal observations for VIC | Marine services | Other Formats
Station Details ID: 086373 Name: RHYLL Lat: -38.46 Lon: 145.31 Height: 13.4 m
Data from the previous 72 hours. | See also: Recent months at Rhyll
Date/Time
EST
Temp

°C
Wind Pressure Rain
since 9am
mm
Weather Cloud Vis
km
Sea
Height
m
Swell
Dir
 
Speed
knots
Gust
knots
hPa Trend Height
m
Period
s
Dir
28/10:00am 12.9 S 7 11 1010.9 - 0.0 - - - - - - -
28/09:30am 12.3 S 8 19 1010.4 - 0.0 - - - - - - -
28/09:00am 11.6 S 8 14 1010.1 - 0.4 - - - - - - -
28/08:30am 11.3 S 8 13 1009.8 - 0.4 - - - - - - -
28/08:00am 10.3 ESE 6 9 1009.7 - 0.4 - - - - - - -
28/07:30am 9.9 SE 4 7 1009.5 - 0.4 - - - - - - -
28/07:00am 9.9 SSE 1 4 1009.2 - 0.4 - - - - - - -
28/06:30am 10.3 SW 6 8 1008.7 - 0.4 - - - - - - -
28/06:00am 8.9 SW 3 5 1008.6 - 0.4 - - - - - - -
28/05:30am 9.0 WSW 2 4 1008.4 - 0.4 - - - - - - -
28/05:00am 9.8 NW 3 6 1008.3 - 0.4 - - - - - - -
28/04:30am 9.6 N 4 5 1008.2 - 0.4 - - - - - - -
28/04:00am 9.3 NNW 1 4 1008.2 - 0.4 - - - - - - -
28/03:30am 9.3 NNW 3 4 1008.1 - 0.4 - - - - - - -
28/03:00am 9.4 N 4 6 1008.2 - 0.2 - - - - - - -
28/02:30am 9.1 NNW 3 5 1008.4 - 0.2 - - - - - - -
28/02:00am 9.2 NW 4 5 1008.3 - 0.2 - - - - - - -
28/01:30am 9.0 NNW 4 5 1008.2 - 0.2 - - - - - - -
28/01:00am 9.2 NNW 4 5 1008.2 - 0.2 - - - - - - -
28/12:30am 9.1 NNW 3 5 1008.3 - 0.0 - - - - - - -
28/12:00am 9.4 N 1 3 1008.4 - 0.0 - - - - - - -
 
Date/Time
EST
Temp

°C
Wind Pressure Rain
since 9am
mm
Weather Cloud Vis
km
Sea
Height
m
Swell
Dir
 
Speed
knots
Gust
knots
hPa Trend Height
m
Period
s
Dir
27/11:30pm 9.4 NE 4 6 1008.3 - 0.0 - - - - - - -
27/11:00pm 9.9 NE 2 3 1008.2 - 0.0 - - - - - - -
27/10:30pm 9.9 SSE 2 6 1008.2 - 0.0 - - - - - - -
27/10:00pm 9.8 SW 2 3 1008.3 - 0.0 - - - - - - -
27/09:30pm 10.5 WNW 3 4 1008.2 - 0.0 - - - - - - -
27/09:00pm 10.8 NW 3 3 1008.1 - 0.0 - - - - - - -
27/08:30pm 11.0 NW 2 3 1008.0 - 0.0 - - - - - - -
27/08:00pm 10.8 WNW 2 3 1007.8 - 0.0 - - - - - - -
27/07:30pm 10.6 CALM 0 0 1007.7 - 0.0 - - - - - - -
27/07:00pm 11.2 WNW 2 3 1007.6 - 0.0 - - - - - - -
27/06:30pm 11.1 WNW 2 3 1007.4 - 0.0 - - - - - - -
27/06:00pm 10.7 WNW 2 3 1007.4 - 0.0 - - - - - - -
27/05:30pm 10.8 WNW 2 3 1007.0 - 0.0 - - - - - - -
27/05:00pm 11.6 WNW 2 3 1006.9 - 0.0 - - - - - - -
27/04:30pm 11.9 WNW 2 3 1006.8 - 0.0 - - - - - - -
27/04:00pm 12.1 W 4 6 1006.7 - 0.0 - - - - - - -
27/03:30pm 13.0 SW 6 10 1006.6 - 0.0 - - - - - - -
27/03:00pm 12.7 WSW 2 5 1006.3 - 0.0 - - - - - - -
27/02:30pm 13.4 WSW 4 8 1006.4 - 0.0 - - - - - - -
27/02:00pm 12.4 WNW 3 5 1006.4 - 0.0 - - - - - - -
27/01:30pm 12.0 W 5 8 1006.5 - 0.0 - - - - - - -
27/01:00pm 14.2 W 4 9 1006.4 - 0.0 - - - - - - -
27/12:30pm 13.7 W 7 14 1006.6 - 0.0 - - - - - - -
27/12:00pm 13.5 WSW 5 11 1006.8 - 0.0 - - - - - - -
27/11:30am 12.7 W 4 10 1007.0 - 0.0 - - - - - - -
27/11:00am 13.3 W 6 11 1007.2 - 0.0 - - - - - - -
27/10:30am 12.8 WSW 4 7 1007.1 - 0.0 - - - - - - -
27/10:00am 12.3 SW 11 20 1007.3 - 0.0 - - - - - - -
27/09:30am 13.0 WSW 5 9 1007.1 - 0.0 - - - - - - -
27/09:00am 12.6 SW 6 10 1006.9 - 12.8 - - - - - - -
27/08:30am 12.1 WSW 5 10 1006.8 - 12.8 - - - - - - -
27/08:00am 11.3 SW 5 10 1006.6 - 12.8 - - - - - - -
27/07:30am 11.2 SW 6 9 1006.5 - 12.8 - - - - - - -
27/07:00am 11.5 SW 8 13 1006.1 - 12.8 - - - - - - -
27/06:30am 11.4 SW 7 11 1006.1 - 12.8 - - - - - - -
27/06:00am 11.5 SW 7 13 1006.1 - 12.8 - - - - - - -
27/05:30am 11.0 WSW 5 9 1006.0 - 12.8 - - - - - - -
27/05:00am 11.3 WSW 7 13 1005.9 - 12.8 - - - - - - -
27/04:30am 11.4 SW 8 16 1005.6 - 12.8 - - - - - - -
27/04:00am 11.6 SW 8 12 1005.5 - 12.8 - - - - - - -
27/03:30am 11.5 WSW 6 11 1005.6 - 12.8 - - - - - - -
27/03:00am 11.4 WSW 6 10 1005.7 - 12.8 - - - - - - -
27/02:30am 11.6 WSW 8 16 1005.7 - 12.8 - - - - - - -
27/02:00am 11.6 SW 7 12 1005.7 - 12.8 - - - - - - -
27/01:30am 11.3 WSW 5 10 1005.7 - 12.8 - - - - - - -
27/01:00am 11.2 WSW 7 14 1005.7 - 12.8 - - - - - - -
27/12:30am 10.6 WSW 5 9 1005.8 - 12.8 - - - - - - -
27/12:00am 11.3 WSW 6 11 1005.9 - 12.8 - - - - - - -
 
Date/Time
EST
Temp

°C
Wind Pressure Rain
since 9am
mm
Weather Cloud Vis
km
Sea
Height
m
Swell
Dir
 
Speed
knots
Gust
knots
hPa Trend Height
m
Period
s
Dir
26/11:30pm 10.3 W 6 10 1005.9 - 12.8 - - - - - - -
26/11:00pm 11.3 SW 9 14 1006.0 - 12.8 - - - - - - -
26/10:30pm 10.6 SW 9 15 1005.9 - 12.8 - - - - - - -
26/10:18pm 10.9 WSW 8 22 1005.8 - 12.8 - - - - - - -
26/10:00pm 10.5 WSW 4 7 1005.9 - 12.8 - - - - - - -
26/09:30pm 10.3 WSW 7 15 1006.0 - 12.6 - - - - - - -
26/09:00pm 10.8 W 6 11 1005.7 - 12.0 - - - - - - -
26/08:30pm 10.9 WSW 5 8 1005.3 - 12.0 - - - - - - -
26/08:00pm 11.1 SW 9 17 1005.1 - 12.0 - - - - - - -
26/07:30pm 11.1 W 5 11 1005.0 - 12.0 - - - - - - -
26/07:00pm 11.1 SW 5 9 1004.8 - 12.0 - - - - - - -
26/06:30pm 10.3 SW 6 11 1004.4 - 12.0 - - - - - - -
26/06:00pm 10.7 W 5 10 1004.2 - 11.8 Rain - - - - - -
26/05:30pm 10.6 WSW 4 5 1003.8 - 10.8 - - - - - - -
26/05:00pm 10.8 SW 7 11 1003.8 - 10.0 - - - - - - -
26/04:30pm 11.4 SW 4 7 1003.3 - 8.4 - - - - - - -
26/04:00pm 12.5 SSW 6 12 1003.0 - 8.4 - - - - - - -
26/03:30pm 12.6 SW 5 8 1002.8 - 8.4 - - - - - - -
26/03:00pm 12.3 SSW 6 10 1002.5 - 8.4 - - - - - - -
26/02:30pm 11.5 SSW 6 12 1002.4 - 8.4 - - - - - - -
26/02:00pm 11.6 S 8 13 1002.3 - 8.4 - - - - - - -
26/01:30pm 11.6 S 8 15 1002.1 - 8.4 - - - - - - -
26/01:00pm 11.5 SSW 7 12 1002.0 - 7.6 - - - - - - -
26/12:30pm 10.9 S 13 22 1002.0 - 7.6 - - - - - - -
26/12:00pm 11.5 S 9 14 1001.9 - 6.6 Rain - - - - - -
26/11:30am 11.3 SW 7 14 1002.1 - 5.8 - - - - - - -
26/11:00am 10.9 NW 5 10 1002.3 - 4.6 - - - - - - -
26/10:30am 11.0 NNW 9 13 1002.5 - 3.8 - - - - - - -
26/10:00am 10.8 NNW 10 14 1002.8 - 2.8 - - - - - - -
26/09:30am 10.7 NNW 8 12 1002.9 - 2.0 - - - - - - -
26/09:00am 10.6 NNW 10 15 1002.9 - 5.0 Rain - - - - - -
26/08:30am 10.5 NNW 12 16 1003.0 - 3.4 - - - - - - -
26/08:00am 10.7 NNW 14 19 1003.1 - 3.0 - - - - - - -
26/07:30am 10.8 NNW 14 19 1003.1 - 2.4 - - - - - - -
26/07:00am 11.2 NNW 13 19 1003.4 - 2.4 - - - - - - -
26/06:30am 11.1 NNW 16 22 1003.3 - 2.4 - - - - - - -
26/06:00am 11.1 NNW 15 20 1003.2 - 2.4 - - - - - - -
26/05:30am 11.5 NNW 15 22 1003.7 - 2.4 - - - - - - -
26/05:00am 11.5 NNW 11 17 1003.8 - 2.4 - - - - - - -
26/04:30am 11.6 NNW 14 21 1003.7 - 2.4 - - - - - - -
26/04:00am 11.7 NNW 13 19 1004.1 - 2.4 - - - - - - -
26/03:30am 11.6 NNW 13 20 1004.3 - 2.4 - - - - - - -
26/03:00am 11.7 NNW 15 21 1004.6 - 2.4 - - - - - - -
26/02:30am 11.9 NNW 16 23 1004.9 - 2.4 - - - - - - -
26/02:00am 11.7 NNW 15 24 1005.2 - 2.4 - - - - - - -
26/01:30am 11.4 NNW 16 21 1005.6 - 2.4 - - - - - - -
26/01:00am 11.6 NNW 18 23 1005.8 - 2.4 - - - - - - -
26/12:30am 11.5 NNW 23 29 1006.3 - 2.4 - - - - - - -
26/12:00am 11.4 NNW 22 29 1006.9 - 2.4 Rain - - - - - -
 
Date/Time
EST
Temp

°C
Wind Pressure Rain
since 9am
mm
Weather Cloud Vis
km
Sea
Height
m
Swell
Dir
 
Speed
knots
Gust
knots
hPa Trend Height
m
Period
s
Dir
25/11:30pm 11.3 NNW 22 27 1007.0 - 2.0 - - - - - - -
25/11:00pm 11.5 NNW 19 23 1007.3 - 1.4 - - - - - - -
25/10:30pm 11.8 NNW 14 20 1007.5 - 1.2 - - - - - - -
25/10:00pm 11.9 NNW 15 21 1007.8 - 0.8 - - - - - - -
25/09:30pm 12.2 NNW 16 22 1007.7 - 0.4 - - - - - - -
25/09:00pm 12.6 NNW 16 22 1008.0 - 0.2 - - - - - - -
25/08:30pm 13.0 NNW 19 25 1008.0 - 0.2 - - - - - - -
25/08:00pm 13.1 NNW 18 26 1008.2 - 0.2 - - - - - - -
25/07:30pm 13.6 NNW 20 27 1008.3 - 0.2 - - - - - - -
25/07:00pm 13.7 NNW 21 30 1008.2 - 0.2 - - - - - - -
25/06:30pm 13.5 NNW 20 24 1008.4 - 0.2 - - - - - - -
25/06:00pm 13.3 NNW 16 22 1008.5 - 0.2 - - - - - - -
25/05:30pm 13.4 N 17 24 1008.4 - 0.2 - - - - - - -
25/05:00pm 12.9 N 17 22 1008.6 - 0.2 - - - - - - -
25/04:30pm 13.1 N 21 26 1008.9 - 0.0 - - - - - - -
25/04:00pm 14.0 NNW 22 29 1009.1 - 0.0 - - - - - - -
25/03:32pm 14.1 NNW 19 31 1009.2 - 0.0 - - - - - - -
25/03:30pm 14.1 NNW 19 27 1009.2 - 0.0 - - - - - - -
25/03:18pm 14.4 NNW 19 29 1009.4 - 0.0 - - - - - - -
25/03:00pm 15.0 NNW 21 28 1009.4 - 0.0 - - - - - - -
25/02:47pm 15.4 NNW 18 32 1009.4 - 0.0 - - - - - - -
25/02:30pm 15.4 NNW 18 23 1009.2 - 0.0 - - - - - - -
25/02:00pm 14.6 N 18 23 1009.1 - 0.0 - - - - - - -
25/01:30pm 14.4 N 21 27 1009.4 - 0.0 - - - - - - -
25/01:00pm 14.6 N 21 27 1010.0 - 0.0 - - - - - - -
25/12:30pm 14.4 NNW 20 26 1010.7 - 0.0 - - - - - - -
25/12:00pm 14.3 NNW 19 23 1011.1 - 0.0 - - - - - - -
25/11:30am 13.9 NNW 13 19 1012.2 - 0.0 - - - - - - -
25/11:00am 13.7 N 14 19 1013.1 - 0.0 - - - - - - -
25/10:30am 13.5 N 16 20 1013.5 - 0.0 - - - - - - -

Other Formats:

Comma delimited format used in spreadsheet applications
http://www.bom.gov.au/fwo/IDV60701/IDV60701.94892.axf

JavaScript Object Notation format (JSON) in row-major order
http://www.bom.gov.au/fwo/IDV60701/IDV60701.94892.json